Acton, Indiana
Current Conditions -  °F | °C
As of 6:53 PM on Thursday 18 Dec 2014 (Local Time) from KGEZ Reporting Station
Overcast Overcast  
Wind Chill: 29°   Ceiling: 6500
Heat Index: 29°   Visibility: 9mi
Dew Point: 21°   Wind: 0mph
Humidity: 72%   Direction: NA
Pressure: 30.23"   Gusts: NA
Location:  39.6613°N, 85.9949°W
Report Text: KGEZ 182353Z AUTO 00000KT 9SM OVC065 M02/M06 A3023 RMK AO2 SLP246 60000 T10171061 11017 21022 53003
Loading
Personal Weather Stations






























Interactive Weather Map New forecast layout! Learn more

10-Day Weather Forecast

Advertisements
Track Severe Weather on mobile